createdAt,value
2022-09-17T03:28:47.476Z,9.303129
2022-09-17T03:29:47.251Z,9.303071
2022-09-17T03:30:49.326Z,9.303065
2022-09-17T03:31:51.461Z,9.303055
2022-09-17T03:32:47.022Z,9.303154
2022-09-17T03:33:47.215Z,9.303192
2022-09-17T03:34:47.730Z,9.303243
2022-09-17T03:35:47.460Z,9.303297
2022-09-17T03:36:48.272Z,9.303341
2022-09-17T03:37:47.739Z,9.303026
2022-09-17T03:38:47.389Z,9.303103
2022-09-17T03:39:47.338Z,9.303118
2022-09-17T03:40:47.983Z,9.303163
2022-09-17T03:41:49.758Z,9.303160
2022-09-17T03:42:47.603Z,9.303187
2022-09-17T03:43:47.049Z,9.303237
2022-09-17T03:44:56.005Z,9.303018
2022-09-17T03:45:47.397Z,9.303135
2022-09-17T03:46:47.907Z,9.303342
2022-09-17T03:47:48.054Z,9.303439
2022-09-17T03:48:51.968Z,9.303037
2022-09-17T03:49:47.754Z,9.303185
2022-09-17T03:50:48.894Z,9.303288
2022-09-17T03:51:47.222Z,9.303356
2022-09-17T03:52:47.458Z,9.303430
2022-09-17T03:53:48.869Z,9.303181
2022-09-17T03:54:47.650Z,9.303555
2022-09-17T03:55:46.511Z,9.303587
2022-09-17T03:56:46.806Z,9.303379
2022-09-17T03:57:46.725Z,9.303229
2022-09-17T03:58:46.769Z,9.303153
2022-09-17T03:59:47.312Z,9.303171
2022-09-17T04:00:47.242Z,9.303074
2022-09-17T04:01:47.036Z,9.303062
2022-09-17T04:02:47.217Z,9.303206
2022-09-17T04:03:47.320Z,9.303072
2022-09-17T04:04:46.718Z,9.303195
2022-09-17T04:05:46.887Z,9.303096
2022-09-17T04:06:47.617Z,9.303002
2022-09-17T04:07:49.094Z,9.303027
2022-09-17T04:08:47.451Z,9.303489
2022-09-17T04:09:46.517Z,9.303164
2022-09-17T04:10:46.432Z,9.303003
2022-09-17T04:11:46.480Z,9.303142
2022-09-17T04:12:46.740Z,9.303102
2022-09-17T04:13:46.488Z,9.303059
2022-09-17T04:14:49.449Z,9.303114
2022-09-17T04:15:47.672Z,9.303057
2022-09-17T04:16:46.806Z,9.303063
2022-09-17T04:17:48.016Z,9.303041
2022-09-17T04:18:46.361Z,9.303074
2022-09-17T04:19:46.462Z,9.303020
2022-09-17T04:20:46.432Z,9.303048
2022-09-17T04:21:47.977Z,9.303136
2022-09-17T04:22:47.005Z,9.303065
2022-09-17T04:23:46.592Z,9.303096
2022-09-17T04:24:46.227Z,9.303015
2022-09-17T04:25:46.297Z,9.303093
2022-09-17T04:26:46.753Z,9.302973
2022-09-17T04:27:46.256Z,9.302830
2022-09-17T04:28:46.595Z,9.302979
2022-09-17T04:29:46.221Z,9.303004
2022-09-17T04:30:46.421Z,9.303179
2022-09-17T04:31:47.323Z,9.303061
2022-09-17T04:32:46.270Z,9.303020
2022-09-17T04:33:46.605Z,9.303052
2022-09-17T04:34:46.171Z,9.302986
2022-09-17T04:35:46.322Z,9.303124
2022-09-17T04:36:46.208Z,9.303083
2022-09-17T04:37:46.215Z,9.303086
2022-09-17T04:38:46.298Z,9.303014
2022-09-17T04:39:46.324Z,9.303000
2022-09-17T04:40:46.234Z,9.302984
2022-09-17T04:41:46.064Z,9.302986
2022-09-17T04:42:46.168Z,9.303025
2022-09-17T04:43:46.116Z,9.303028
2022-09-17T04:44:46.051Z,9.303061
2022-09-17T04:45:46.070Z,9.303044
2022-09-17T04:46:46.568Z,9.303099
2022-09-17T04:47:47.034Z,9.303056
2022-09-17T04:48:46.112Z,9.303107
2022-09-17T04:49:46.069Z,9.302979
2022-09-17T04:50:46.183Z,9.302999
2022-09-17T04:51:46.025Z,9.302979
2022-09-17T04:52:46.072Z,9.302865
2022-09-17T04:53:46.213Z,9.302945
2022-09-17T04:54:46.042Z,9.302988
2022-09-17T04:55:45.945Z,9.302954
2022-09-17T04:56:46.105Z,9.303039
2022-09-17T04:57:46.090Z,9.303055
2022-09-17T04:58:47.189Z,9.302972
2022-09-17T04:59:46.098Z,9.303110
2022-09-17T05:00:46.064Z,9.303047
2022-09-17T05:01:46.810Z,9.302932
2022-09-17T05:02:46.022Z,9.303003
2022-09-17T05:03:46.694Z,9.302988
2022-09-17T05:04:45.901Z,9.303001
2022-09-17T05:05:45.857Z,9.302891
2022-09-17T05:06:45.862Z,9.302825
2022-09-17T05:07:45.848Z,9.302904
2022-09-17T05:08:45.793Z,9.302925
2022-09-17T05:09:45.809Z,9.302955
2022-09-17T05:10:45.852Z,9.303052
2022-09-17T05:11:45.726Z,9.302930
2022-09-17T05:12:45.745Z,9.303034
2022-09-17T05:13:45.707Z,9.302953
2022-09-17T05:14:45.737Z,9.302946
2022-09-17T05:15:45.794Z,9.302835
2022-09-17T05:16:45.768Z,9.302900
2022-09-17T05:17:45.774Z,9.302987
2022-09-17T05:18:45.660Z,9.302965
2022-09-17T05:19:45.699Z,9.303001
2022-09-17T05:20:45.645Z,9.302988
2022-09-17T05:21:45.743Z,9.302999
2022-09-17T05:22:47.171Z,9.302989
2022-09-17T05:23:45.640Z,9.303102
2022-09-17T05:24:46.471Z,9.303046
2022-09-17T05:25:45.686Z,9.303265
2022-09-17T05:26:45.552Z,9.303211
2022-09-17T05:27:45.693Z,9.303041
2022-09-17T05:28:45.625Z,9.303069
2022-09-17T05:29:46.347Z,9.303030
2022-09-17T05:30:45.626Z,9.302866
2022-09-17T05:31:45.859Z,9.302844
2022-09-17T05:32:45.980Z,9.302944
2022-09-17T05:33:45.605Z,9.303163
2022-09-17T05:34:45.663Z,9.303068
2022-09-17T05:35:45.826Z,9.302980
2022-09-17T05:36:45.733Z,9.302881
2022-09-17T05:37:45.516Z,9.302985
2022-09-17T05:38:45.652Z,9.303028
2022-09-17T05:39:45.525Z,9.303180
2022-09-17T05:40:45.531Z,9.303131
2022-09-17T05:41:45.486Z,9.303076
2022-09-17T05:42:45.565Z,9.303061
2022-09-17T05:43:45.579Z,9.303037
2022-09-17T05:44:45.462Z,9.303074
2022-09-17T05:45:45.542Z,9.303112
2022-09-17T05:46:45.433Z,9.303139
2022-09-17T05:47:45.492Z,9.303131
2022-09-17T05:48:45.450Z,9.303134
2022-09-17T05:49:45.542Z,9.303112
2022-09-17T05:50:45.355Z,9.303060
2022-09-17T05:51:45.377Z,9.303095
2022-09-17T05:52:46.120Z,9.303004
2022-09-17T05:53:45.379Z,9.302990
2022-09-17T05:54:45.416Z,9.303069
2022-09-17T05:55:45.590Z,9.303079
2022-09-17T05:56:45.494Z,9.303034
2022-09-17T05:57:45.325Z,9.303067
2022-09-17T05:58:45.494Z,9.303076
2022-09-17T05:59:46.188Z,9.303058
2022-09-17T06:00:45.342Z,9.302981
2022-09-17T06:01:45.429Z,9.303005
2022-09-17T06:02:45.435Z,9.303009
2022-09-17T06:03:45.393Z,9.302979
2022-09-17T06:04:45.708Z,9.302907
2022-09-17T06:05:45.324Z,9.303084
2022-09-17T06:06:45.437Z,9.303005
2022-09-17T06:07:45.400Z,9.303073
2022-09-17T06:08:45.501Z,9.303014
2022-09-17T06:09:45.199Z,9.302878
2022-09-17T06:10:45.438Z,9.302852
2022-09-17T06:11:45.214Z,9.302899
2022-09-17T06:12:45.406Z,9.303148
2022-09-17T06:13:45.200Z,9.302983
2022-09-17T06:14:45.133Z,9.303030
2022-09-17T06:15:46.127Z,9.303068
2022-09-17T06:16:45.347Z,9.303059
2022-09-17T06:17:45.106Z,9.303037
2022-09-17T06:18:45.144Z,9.303048
2022-09-17T06:19:45.053Z,9.302989
2022-09-17T06:20:45.137Z,9.303072
2022-09-17T06:21:45.336Z,9.303077
2022-09-17T06:22:45.149Z,9.303067
2022-09-17T06:23:45.206Z,9.303078
2022-09-17T06:24:45.236Z,9.303065
2022-09-17T06:25:45.045Z,9.303041
2022-09-17T06:26:45.147Z,9.303073
2022-09-17T06:27:45.155Z,9.303037
2022-09-17T06:28:45.018Z,9.303072
2022-09-17T06:29:45.124Z,9.303062
2022-09-17T06:30:45.073Z,9.303020
2022-09-17T06:31:45.143Z,9.303091
2022-09-17T06:32:45.266Z,9.303020
2022-09-17T06:33:45.023Z,9.303130
2022-09-17T06:34:44.970Z,9.303079
2022-09-17T06:35:44.897Z,9.303029
2022-09-17T06:36:44.918Z,9.302962
2022-09-17T06:37:45.022Z,9.302967
2022-09-17T06:38:45.042Z,9.303123
2022-09-17T06:39:44.904Z,9.303033
2022-09-17T06:40:45.639Z,9.303007
2022-09-17T06:41:44.917Z,9.302963
2022-09-17T06:42:44.824Z,9.302935
2022-09-17T06:43:45.713Z,9.302999
2022-09-17T06:44:44.832Z,9.302976
2022-09-17T06:45:44.867Z,9.303036
2022-09-17T06:46:44.788Z,9.302990
2022-09-17T06:47:45.586Z,9.302965
2022-09-17T06:48:45.010Z,9.302910
2022-09-17T06:49:44.795Z,9.302921
2022-09-17T06:50:45.483Z,9.302914
2022-09-17T06:51:44.693Z,9.302930
2022-09-17T06:52:46.041Z,9.302875
2022-09-17T06:53:44.860Z,9.302949
2022-09-17T06:54:44.857Z,9.302974
2022-09-17T06:55:44.763Z,9.302993
2022-09-17T06:56:44.843Z,9.303040
2022-09-17T06:57:44.762Z,9.303062
2022-09-17T06:58:44.642Z,9.303061
2022-09-17T06:59:45.658Z,9.303025
2022-09-17T07:00:44.728Z,9.303074
2022-09-17T07:01:44.644Z,9.303054
2022-09-17T07:02:44.734Z,9.302925
2022-09-17T07:03:44.604Z,9.302938
2022-09-17T07:04:44.659Z,9.302949
2022-09-17T07:05:44.557Z,9.302974
2022-09-17T07:06:44.776Z,9.302962
2022-09-17T07:07:44.599Z,9.303022
2022-09-17T07:08:44.700Z,9.303149
2022-09-17T07:09:44.610Z,9.303082
2022-09-17T07:10:44.548Z,9.302983
2022-09-17T07:11:44.910Z,9.303082
2022-09-17T07:12:49.191Z,9.303035
2022-09-17T07:13:46.665Z,9.303106
2022-09-17T07:14:44.473Z,9.302997
2022-09-17T07:15:44.565Z,9.303000
2022-09-17T07:16:44.481Z,9.302986
2022-09-17T07:17:45.778Z,9.303046
2022-09-17T07:18:44.563Z,9.303053
2022-09-17T07:19:44.740Z,9.303026
2022-09-17T07:20:44.538Z,9.303031
2022-09-17T07:21:44.709Z,9.303023
2022-09-17T07:22:44.668Z,9.302957
2022-09-17T07:23:44.443Z,9.302976
2022-09-17T07:24:44.472Z,9.303040
2022-09-17T07:25:45.164Z,9.303043
2022-09-17T07:26:44.462Z,9.302975
2022-09-17T07:27:44.623Z,9.302977
2022-09-17T07:28:44.745Z,9.303086
2022-09-17T07:29:44.430Z,9.302975
2022-09-17T07:30:44.379Z,9.303049
2022-09-17T07:31:44.387Z,9.303053
2022-09-17T07:32:44.365Z,9.303018
2022-09-17T07:33:44.826Z,9.303026
2022-09-17T07:34:44.503Z,9.303088
2022-09-17T07:35:44.297Z,9.303037
2022-09-17T07:36:44.374Z,9.302915
2022-09-17T07:37:44.342Z,9.303011
2022-09-17T07:38:44.309Z,9.303026
2022-09-17T07:39:44.309Z,9.303062
2022-09-17T07:40:44.274Z,9.303083
2022-09-17T07:41:44.486Z,9.303037
2022-09-17T07:42:44.282Z,9.303059
2022-09-17T07:43:44.342Z,9.303070
2022-09-17T07:44:44.428Z,9.303029
2022-09-17T07:45:44.291Z,9.302958
2022-09-17T07:46:44.396Z,9.302833
2022-09-17T07:47:44.158Z,9.302882
2022-09-17T07:48:44.229Z,9.302973
2022-09-17T07:49:44.282Z,9.302846
2022-09-17T07:50:44.500Z,9.302976
2022-09-17T07:51:44.220Z,9.303036
2022-09-17T07:52:44.325Z,9.302984
2022-09-17T07:53:44.140Z,9.303181
2022-09-17T07:54:44.155Z,9.303059
2022-09-17T07:55:44.317Z,9.303045
2022-09-17T07:56:44.256Z,9.302993
2022-09-17T07:57:44.326Z,9.302985
2022-09-17T07:58:46.752Z,9.303049
2022-09-17T07:59:44.202Z,9.303040
2022-09-17T08:00:44.050Z,9.303003
2022-09-17T08:01:44.172Z,9.303030
2022-09-17T08:02:44.150Z,9.303060
2022-09-17T08:03:44.145Z,9.303026
2022-09-17T08:04:44.005Z,9.303037
2022-09-17T08:05:44.082Z,9.303069
2022-09-17T08:06:44.069Z,9.303049
2022-09-17T08:07:44.239Z,9.302884
2022-09-17T08:08:44.177Z,9.302998
2022-09-17T08:09:44.021Z,9.302879
2022-09-17T08:10:44.217Z,9.302858
2022-09-17T08:11:55.696Z,9.302876
2022-09-17T08:12:46.028Z,9.302928
2022-09-17T08:13:44.005Z,9.302974
2022-09-17T08:14:44.038Z,9.303063
2022-09-17T08:15:44.330Z,9.302991
2022-09-17T08:16:44.162Z,9.303062
2022-09-17T08:17:44.055Z,9.303106
2022-09-17T08:18:44.809Z,9.303024
2022-09-17T08:19:45.134Z,9.303084
2022-09-17T08:20:43.901Z,9.302999
2022-09-17T08:21:44.299Z,9.302999
2022-09-17T08:22:46.780Z,9.303004
2022-09-17T08:23:44.939Z,9.303076
2022-09-17T08:24:43.816Z,9.303115
2022-09-17T08:25:44.939Z,9.303012
2022-09-17T08:26:43.834Z,9.302995
2022-09-17T08:27:44.025Z,9.303066
2022-09-17T08:28:45.970Z,9.303144
2022-09-17T08:29:43.895Z,9.303144
2022-09-17T08:30:43.758Z,9.303060
2022-09-17T08:31:44.446Z,9.303093
2022-09-17T08:32:44.728Z,9.303037
2022-09-17T08:33:43.783Z,9.303002
2022-09-17T08:34:43.720Z,9.302995
2022-09-17T08:35:43.792Z,9.303082
2022-09-17T08:36:43.898Z,9.303048
2022-09-17T08:37:43.847Z,9.303098
2022-09-17T08:38:44.300Z,9.303120
2022-09-17T08:39:43.752Z,9.303043
2022-09-17T08:40:43.638Z,9.303040
2022-09-17T08:41:44.375Z,9.303050
2022-09-17T08:42:43.945Z,9.303069
2022-09-17T08:43:43.667Z,9.303077
2022-09-17T08:44:44.527Z,9.303046
2022-09-17T08:45:43.906Z,9.303141
2022-09-17T08:46:43.722Z,9.303031
2022-09-17T08:47:43.633Z,9.302968
2022-09-17T08:48:43.701Z,9.302922
2022-09-17T08:49:43.584Z,9.302969
2022-09-17T08:50:43.700Z,9.303086
2022-09-17T08:51:43.549Z,9.303000
2022-09-17T08:52:43.912Z,9.303072
2022-09-17T08:53:43.715Z,9.303073
2022-09-17T08:54:44.344Z,9.303072
2022-09-17T08:55:44.797Z,9.303054
2022-09-17T08:56:43.536Z,9.303040
2022-09-17T08:57:43.744Z,9.303091
2022-09-17T08:58:43.606Z,9.303035
2022-09-17T08:59:43.579Z,9.303042
2022-09-17T09:00:43.561Z,9.303035
2022-09-17T09:01:43.605Z,9.303033
2022-09-17T09:02:43.530Z,9.302981
2022-09-17T09:03:43.682Z,9.302981
2022-09-17T09:04:43.396Z,9.302984
2022-09-17T09:05:43.377Z,9.303051
2022-09-17T09:06:43.408Z,9.302991
2022-09-17T09:07:43.505Z,9.303068
2022-09-17T09:08:43.365Z,9.303028
2022-09-17T09:09:44.180Z,9.302958
2022-09-17T09:10:43.338Z,9.302977
2022-09-17T09:11:43.373Z,9.303078
2022-09-17T09:12:43.437Z,9.303029
2022-09-17T09:13:44.129Z,9.303057
2022-09-17T09:14:43.838Z,9.303110
2022-09-17T09:15:43.398Z,9.303110
2022-09-17T09:16:44.358Z,9.303055
2022-09-17T09:17:43.269Z,9.303004
2022-09-17T09:18:44.222Z,9.302981
2022-09-17T09:19:43.339Z,9.303053
2022-09-17T09:20:43.322Z,9.303090
2022-09-17T09:21:43.253Z,9.303032
2022-09-17T09:22:43.247Z,9.303095
2022-09-17T09:23:43.710Z,9.303062
2022-09-17T09:24:43.211Z,9.303031
2022-09-17T09:25:43.262Z,9.303022
2022-09-17T09:26:43.155Z,9.302976
2022-09-17T09:27:43.196Z,9.303021
2022-09-17T09:28:43.187Z,9.303025
2022-09-17T09:29:43.139Z,9.302985
2022-09-17T09:30:43.153Z,9.302988
2022-09-17T09:31:43.302Z,9.302959
2022-09-17T09:32:43.157Z,9.302979
2022-09-17T09:33:47.572Z,9.302923
2022-09-17T09:34:44.175Z,9.302900
2022-09-17T09:35:43.095Z,9.302990
2022-09-17T09:36:43.145Z,9.302968
2022-09-17T09:37:43.047Z,9.302921
2022-09-17T09:38:43.115Z,9.302954
2022-09-17T09:39:46.092Z,9.302945
2022-09-17T09:40:44.018Z,9.303088
2022-09-17T09:41:43.092Z,9.303115
2022-09-17T09:42:42.994Z,9.303135
2022-09-17T09:44:02.562Z,9.303090
2022-09-17T09:44:44.994Z,9.303037
2022-09-17T09:45:42.943Z,9.303010
2022-09-17T09:46:43.036Z,9.302931
2022-09-17T09:47:42.989Z,9.302860
2022-09-17T09:48:43.926Z,9.302917
2022-09-17T09:49:42.988Z,9.303008
2022-09-17T09:51:05.327Z,9.303017
2022-09-17T09:51:44.956Z,9.302982
2022-09-17T09:52:42.909Z,9.302999
2022-09-17T09:53:42.893Z,9.303103
2022-09-17T09:54:42.842Z,9.302968
2022-09-17T09:55:42.852Z,9.303001
2022-09-17T09:56:42.836Z,9.303015
2022-09-17T09:57:42.886Z,9.303041
2022-09-17T09:58:42.899Z,9.303028
2022-09-17T09:59:42.833Z,9.302971
2022-09-17T10:00:42.996Z,9.302934
2022-09-17T10:01:42.986Z,9.303009
2022-09-17T10:02:43.044Z,9.302918
2022-09-17T10:03:42.774Z,9.303091
2022-09-17T10:04:42.739Z,9.302951
2022-09-17T10:05:42.804Z,9.302970
2022-09-17T10:06:42.727Z,9.303022
2022-09-17T10:07:42.940Z,9.302962
2022-09-17T10:08:42.747Z,9.302996
2022-09-17T10:09:42.808Z,9.303189
2022-09-17T10:10:42.717Z,9.303224
2022-09-17T10:11:42.914Z,9.303209
2022-09-17T10:12:42.703Z,9.303168
2022-09-17T10:13:42.690Z,9.303268
2022-09-17T10:14:43.625Z,9.302986
2022-09-17T10:15:42.844Z,9.302798
2022-09-17T10:16:42.691Z,9.302898
2022-09-17T10:17:42.696Z,9.302882
2022-09-17T10:22:54.479Z,9.303765
2022-09-17T10:23:53.458Z,9.303555
2022-09-17T10:24:50.515Z,9.303612
2022-09-17T10:25:55.370Z,9.303275
2022-09-17T10:26:52.536Z,9.303352
2022-09-17T10:27:50.445Z,9.303345
2022-09-17T10:28:47.956Z,9.303430
2022-09-17T10:29:50.004Z,9.303315
2022-09-17T10:30:49.088Z,9.303272
2022-09-17T10:31:52.284Z,9.303535
2022-09-17T10:32:56.015Z,9.303371
2022-09-17T10:33:50.333Z,9.303205
2022-09-17T10:34:54.090Z,9.303200
2022-09-17T10:35:49.017Z,9.303175
2022-09-17T10:36:53.178Z,9.303185
2022-09-17T10:37:48.948Z,9.303251
2022-09-17T10:38:50.061Z,9.303145
2022-09-17T10:39:48.928Z,9.303142
2022-09-17T10:40:48.788Z,9.303118
2022-09-17T10:42:01.781Z,9.303170
2022-09-17T10:43:21.085Z,9.303119
2022-09-17T10:43:51.803Z,9.303064
2022-09-17T10:44:51.201Z,9.303119
2022-09-17T10:45:52.260Z,9.303160
2022-09-17T10:46:50.228Z,9.303217
2022-09-17T10:47:49.043Z,9.303250
2022-09-17T10:48:47.923Z,9.303353
2022-09-17T10:49:58.975Z,9.303249
2022-09-17T10:51:00.658Z,9.303144
2022-09-17T10:51:54.791Z,9.303159
2022-09-17T10:53:02.517Z,9.303128
2022-09-17T10:53:50.107Z,9.303100
2022-09-17T10:54:53.990Z,9.303213
2022-09-17T10:55:51.397Z,9.303251
2022-09-17T10:57:10.918Z,9.303253
2022-09-17T10:57:49.062Z,9.303201
2022-09-17T10:58:48.887Z,9.303138
2022-09-17T10:59:54.965Z,9.303271
2022-09-17T11:01:03.690Z,9.303288
2022-09-17T11:01:57.678Z,9.303196
2022-09-17T11:03:03.554Z,9.303226
2022-09-17T11:04:01.268Z,9.303050
2022-09-17T11:04:50.226Z,9.303066
2022-09-17T11:05:57.591Z,9.303060
2022-09-17T11:06:47.463Z,9.303036
2022-09-17T11:07:53.260Z,9.303043
2022-09-17T11:08:48.025Z,9.303112
2022-09-17T11:09:59.620Z,9.303020
2022-09-17T11:10:53.845Z,9.303038
2022-09-17T11:11:50.052Z,9.303017
2022-09-17T11:13:14.240Z,9.303094
2022-09-17T11:13:48.778Z,9.303100
2022-09-17T11:14:47.696Z,9.303066
2022-09-17T11:15:55.809Z,9.303122
2022-09-17T11:16:54.982Z,9.303187
2022-09-17T11:17:47.714Z,9.303063
2022-09-17T11:18:47.659Z,9.303042
2022-09-17T11:19:47.892Z,9.303190
2022-09-17T11:21:00.001Z,9.303198
2022-09-17T11:21:52.244Z,9.303152
2022-09-17T11:23:40.671Z,9.303170
2022-09-17T11:23:48.490Z,9.303157
2022-09-17T11:24:50.000Z,9.303159
2022-09-17T11:26:00.661Z,9.303128
2022-09-17T11:27:51.136Z,9.303304
2022-09-17T11:27:52.950Z,9.303304
2022-09-17T11:28:58.342Z,9.303161
2022-09-17T11:29:59.469Z,9.303102
2022-09-17T11:30:54.320Z,9.303077
2022-09-17T11:33:15.496Z,9.303099
2022-09-17T11:41:44.821Z,9.303232
2022-09-17T11:42:53.645Z,9.303242
2022-09-17T11:46:43.267Z,9.303377
2022-09-17T11:47:28.224Z,9.303254
2022-09-17T11:48:03.557Z,9.303237
2022-09-17T11:50:19.613Z,9.303215
2022-09-17T12:00:55.441Z,9.303024
2022-09-17T12:41:17.302Z,9.303049
2022-09-17T12:42:15.386Z,9.303019
2022-09-17T12:43:42.972Z,9.303081
2022-09-17T12:44:27.673Z,9.303146
2022-09-17T12:45:17.586Z,9.303105
2022-09-17T12:46:29.882Z,9.303054
2022-09-17T12:49:14.196Z,9.302984
2022-09-17T13:22:01.156Z,9.303002
2022-09-17T13:29:39.176Z,9.303092
2022-09-17T13:30:46.949Z,9.303088
2022-09-17T13:31:34.167Z,9.303070
2022-09-17T13:32:27.077Z,9.303052
2022-09-17T13:33:50.070Z,9.303084
2022-09-17T13:34:36.936Z,9.303049
2022-09-17T13:35:28.521Z,9.303129
2022-09-17T13:36:25.866Z,9.303063
2022-09-17T13:37:30.121Z,9.303069
2022-09-17T13:39:40.336Z,9.303021
2022-09-17T13:40:03.927Z,9.303021
